sensor_id;sensor_type;location;lat;lon;timestamp;pressure;altitude;pressure_sealevel;temperature;humidity
21182;BME280;10749;46.296;7.524;2024-01-11T00:00:57;95412.84;;;4.26;56.05
21182;BME280;10749;46.296;7.524;2024-01-11T00:03:24;95403.31;;;4.25;56.20
21182;BME280;10749;46.296;7.524;2024-01-11T00:05:49;95406.63;;;4.27;56.22
21182;BME280;10749;46.296;7.524;2024-01-11T00:08:15;95407.84;;;4.23;55.99
21182;BME280;10749;46.296;7.524;2024-01-11T00:10:40;95411.44;;;4.22;55.92
21182;BME280;10749;46.296;7.524;2024-01-11T00:13:06;95406.06;;;4.24;56.00
21182;BME280;10749;46.296;7.524;2024-01-11T00:15:31;95403.50;;;4.12;56.02
21182;BME280;10749;46.296;7.524;2024-01-11T00:17:56;95407.91;;;4.12;56.11
21182;BME280;10749;46.296;7.524;2024-01-11T00:20:22;95402.41;;;4.15;56.11
21182;BME280;10749;46.296;7.524;2024-01-11T00:22:47;95407.91;;;4.12;55.92
21182;BME280;10749;46.296;7.524;2024-01-11T00:25:12;95402.94;;;4.09;56.06
21182;BME280;10749;46.296;7.524;2024-01-11T00:27:38;95406.50;;;4.08;56.05
21182;BME280;10749;46.296;7.524;2024-01-11T00:30:03;95409.13;;;4.08;56.14
21182;BME280;10749;46.296;7.524;2024-01-11T00:32:29;95414.09;;;4.11;56.29
21182;BME280;10749;46.296;7.524;2024-01-11T00:34:54;95406.00;;;4.14;56.34
21182;BME280;10749;46.296;7.524;2024-01-11T00:37:19;95407.91;;;4.12;56.19
21182;BME280;10749;46.296;7.524;2024-01-11T00:39:45;95416.72;;;4.11;56.17
21182;BME280;10749;46.296;7.524;2024-01-11T00:42:10;95406.97;;;4.13;56.34
21182;BME280;10749;46.296;7.524;2024-01-11T00:44:35;95410.78;;;4.09;56.27
21182;BME280;10749;46.296;7.524;2024-01-11T00:47:00;95411.09;;;4.15;56.33
21182;BME280;10749;46.296;7.524;2024-01-11T00:49:26;95408.63;;;4.14;56.37
21182;BME280;10749;46.296;7.524;2024-01-11T00:51:51;95409.84;;;4.10;56.17
21182;BME280;10749;46.296;7.524;2024-01-11T00:54:16;95411.50;;;4.11;56.21
21182;BME280;10749;46.296;7.524;2024-01-11T00:56:41;95413.34;;;4.20;56.17
21182;BME280;10749;46.296;7.524;2024-01-11T00:59:07;95409.00;;;4.09;56.20
21182;BME280;10749;46.296;7.524;2024-01-11T01:01:32;95409.97;;;4.08;56.04
21182;BME280;10749;46.296;7.524;2024-01-11T01:03:58;95409.69;;;4.11;56.02
21182;BME280;10749;46.296;7.524;2024-01-11T01:06:23;95405.09;;;4.04;56.18
21182;BME280;10749;46.296;7.524;2024-01-11T01:08:48;95410.13;;;3.96;55.90
21182;BME280;10749;46.296;7.524;2024-01-11T01:11:14;95407.63;;;3.94;56.20
21182;BME280;10749;46.296;7.524;2024-01-11T01:13:39;95405.00;;;3.94;56.11
21182;BME280;10749;46.296;7.524;2024-01-11T01:16:04;95415.38;;;3.96;56.13
21182;BME280;10749;46.296;7.524;2024-01-11T01:18:30;95421.31;;;3.98;56.28
21182;BME280;10749;46.296;7.524;2024-01-11T01:20:55;95422.72;;;4.02;56.02
21182;BME280;10749;46.296;7.524;2024-01-11T01:23:21;95424.38;;;4.03;56.03
21182;BME280;10749;46.296;7.524;2024-01-11T01:25:46;95422.13;;;3.98;56.17
21182;BME280;10749;46.296;7.524;2024-01-11T01:28:11;95422.41;;;3.95;56.06
21182;BME280;10749;46.296;7.524;2024-01-11T01:30:37;95414.91;;;3.91;56.27
21182;BME280;10749;46.296;7.524;2024-01-11T01:33:02;95423.13;;;3.97;56.23
21182;BME280;10749;46.296;7.524;2024-01-11T01:35:28;95417.41;;;3.92;56.33
21182;BME280;10749;46.296;7.524;2024-01-11T01:37:53;95428.59;;;3.94;56.09
21182;BME280;10749;46.296;7.524;2024-01-11T01:40:18;95429.56;;;3.93;56.13
21182;BME280;10749;46.296;7.524;2024-01-11T01:42:44;95427.75;;;3.94;56.05
21182;BME280;10749;46.296;7.524;2024-01-11T01:45:10;95430.38;;;3.94;55.99
21182;BME280;10749;46.296;7.524;2024-01-11T01:47:36;95439.69;;;3.87;56.10
21182;BME280;10749;46.296;7.524;2024-01-11T01:50:03;95435.41;;;3.86;55.99
21182;BME280;10749;46.296;7.524;2024-01-11T01:52:29;95437.44;;;3.82;56.17
21182;BME280;10749;46.296;7.524;2024-01-11T01:54:55;95434.72;;;3.84;55.98
21182;BME280;10749;46.296;7.524;2024-01-11T01:57:22;95429.59;;;3.82;56.09
21182;BME280;10749;46.296;7.524;2024-01-11T01:59:49;95432.34;;;3.81;56.15
21182;BME280;10749;46.296;7.524;2024-01-11T02:02:16;95439.38;;;3.80;56.20
21182;BME280;10749;46.296;7.524;2024-01-11T02:04:41;95442.09;;;3.79;56.10
21182;BME280;10749;46.296;7.524;2024-01-11T02:07:07;95440.94;;;3.71;56.13
21182;BME280;10749;46.296;7.524;2024-01-11T02:09:33;95445.97;;;3.63;56.10
21182;BME280;10749;46.296;7.524;2024-01-11T02:11:59;95447.59;;;3.64;56.14
21182;BME280;10749;46.296;7.524;2024-01-11T02:14:26;95444.41;;;3.61;56.20
21182;BME280;10749;46.296;7.524;2024-01-11T02:16:51;95447.75;;;3.63;56.21
21182;BME280;10749;46.296;7.524;2024-01-11T02:19:18;95444.97;;;3.64;56.25
21182;BME280;10749;46.296;7.524;2024-01-11T02:21:46;95446.44;;;3.68;56.18
21182;BME280;10749;46.296;7.524;2024-01-11T02:24:13;95447.00;;;3.72;56.35
21182;BME280;10749;46.296;7.524;2024-01-11T02:27:00;95443.63;;;3.81;56.27
21182;BME280;10749;46.296;7.524;2024-01-11T02:29:26;95443.72;;;3.91;56.18
21182;BME280;10749;46.296;7.524;2024-01-11T02:31:52;95447.75;;;3.95;56.32
21182;BME280;10749;46.296;7.524;2024-01-11T02:34:18;95444.66;;;3.90;56.13
21182;BME280;10749;46.296;7.524;2024-01-11T02:36:43;95454.56;;;3.86;56.12
21182;BME280;10749;46.296;7.524;2024-01-11T02:39:09;95445.97;;;3.63;55.93
21182;BME280;10749;46.296;7.524;2024-01-11T02:41:36;95454.88;;;3.72;56.04
21182;BME280;10749;46.296;7.524;2024-01-11T02:44:02;95444.72;;;3.79;56.16
21182;BME280;10749;46.296;7.524;2024-01-11T02:46:27;95441.72;;;3.83;56.15
21182;BME280;10749;46.296;7.524;2024-01-11T02:48:53;95437.19;;;3.85;56.10
21182;BME280;10749;46.296;7.524;2024-01-11T02:51:18;95444.34;;;3.83;56.11
21182;BME280;10749;46.296;7.524;2024-01-11T02:53:43;95435.53;;;3.84;56.11
21182;BME280;10749;46.296;7.524;2024-01-11T02:56:08;95441.63;;;3.85;56.01
21182;BME280;10749;46.296;7.524;2024-01-11T02:58:34;95439.56;;;3.88;56.17
21182;BME280;10749;46.296;7.524;2024-01-11T03:00:59;95435.28;;;3.87;56.04
21182;BME280;10749;46.296;7.524;2024-01-11T03:03:24;95440.31;;;3.79;56.18
21182;BME280;10749;46.296;7.524;2024-01-11T03:05:49;95431.03;;;3.75;56.22
21182;BME280;10749;46.296;7.524;2024-01-11T03:08:15;95433.56;;;3.77;56.26
21182;BME280;10749;46.296;7.524;2024-01-11T03:10:40;95427.91;;;3.81;56.10
21182;BME280;10749;46.296;7.524;2024-01-11T03:13:06;95427.34;;;3.78;56.35
21182;BME280;10749;46.296;7.524;2024-01-11T03:15:31;95424.72;;;3.78;56.13
21182;BME280;10749;46.296;7.524;2024-01-11T03:17:57;95422.81;;;3.80;56.29
21182;BME280;10749;46.296;7.524;2024-01-11T03:20:22;95418.53;;;3.79;56.18
21182;BME280;10749;46.296;7.524;2024-01-11T03:22:50;95415.66;;;3.82;56.15
21182;BME280;10749;46.296;7.524;2024-01-11T03:25:16;95418.16;;;3.83;56.21
21182;BME280;10749;46.296;7.524;2024-01-11T03:27:42;95410.94;;;3.76;56.30
21182;BME280;10749;46.296;7.524;2024-01-11T03:30:07;95412.19;;;3.81;56.36
21182;BME280;10749;46.296;7.524;2024-01-11T03:32:33;95411.97;;;3.84;56.37
21182;BME280;10749;46.296;7.524;2024-01-11T03:34:58;95412.66;;;3.86;56.16
21182;BME280;10749;46.296;7.524;2024-01-11T03:37:23;95407.44;;;3.86;56.24
21182;BME280;10749;46.296;7.524;2024-01-11T03:39:48;95410.63;;;3.90;56.24
21182;BME280;10749;46.296;7.524;2024-01-11T03:42:14;95415.63;;;3.93;56.33
21182;BME280;10749;46.296;7.524;2024-01-11T03:44:39;95413.03;;;3.93;56.13
21182;BME280;10749;46.296;7.524;2024-01-11T03:47:04;95418.47;;;3.90;56.18
21182;BME280;10749;46.296;7.524;2024-01-11T03:49:29;95416.97;;;3.87;56.19
21182;BME280;10749;46.296;7.524;2024-01-11T03:51:55;95418.75;;;3.87;56.29
21182;BME280;10749;46.296;7.524;2024-01-11T03:54:20;95417.91;;;3.86;56.24
21182;BME280;10749;46.296;7.524;2024-01-11T03:56:45;95420.41;;;3.88;56.11
21182;BME280;10749;46.296;7.524;2024-01-11T03:59:10;95421.34;;;3.87;56.35
21182;BME280;10749;46.296;7.524;2024-01-11T04:01:40;95423.72;;;3.90;56.18
21182;BME280;10749;46.296;7.524;2024-01-11T04:04:05;95425.91;;;3.85;56.40
21182;BME280;10749;46.296;7.524;2024-01-11T04:06:31;95426.13;;;3.82;56.16
21182;BME280;10749;46.296;7.524;2024-01-11T04:08:56;95425.19;;;3.83;56.29
21182;BME280;10749;46.296;7.524;2024-01-11T04:11:21;95424.50;;;3.81;56.46
21182;BME280;10749;46.296;7.524;2024-01-11T04:13:47;95415.91;;;3.79;56.34
21182;BME280;10749;46.296;7.524;2024-01-11T04:16:12;95422.69;;;3.81;55.90
21182;BME280;10749;46.296;7.524;2024-01-11T04:18:38;95417.63;;;3.68;56.16
21182;BME280;10749;46.296;7.524;2024-01-11T04:21:03;95418.81;;;3.64;56.17
21182;BME280;10749;46.296;7.524;2024-01-11T04:23:29;95420.72;;;3.62;56.27
21182;BME280;10749;46.296;7.524;2024-01-11T04:25:54;95421.00;;;3.59;56.12
21182;BME280;10749;46.296;7.524;2024-01-11T04:28:20;95423.13;;;3.54;56.12
21182;BME280;10749;46.296;7.524;2024-01-11T04:30:45;95421.00;;;3.48;56.03
21182;BME280;10749;46.296;7.524;2024-01-11T04:33:10;95412.34;;;3.48;56.28
21182;BME280;10749;46.296;7.524;2024-01-11T04:35:36;95418.38;;;3.48;56.23
21182;BME280;10749;46.296;7.524;2024-01-11T04:38:02;95418.53;;;3.47;56.25
21182;BME280;10749;46.296;7.524;2024-01-11T04:40:27;95422.19;;;3.44;56.36
21182;BME280;10749;46.296;7.524;2024-01-11T04:42:52;95417.22;;;3.41;56.36
21182;BME280;10749;46.296;7.524;2024-01-11T04:45:18;95415.31;;;3.43;56.05
21182;BME280;10749;46.296;7.524;2024-01-11T04:47:43;95418.16;;;3.40;56.19
21182;BME280;10749;46.296;7.524;2024-01-11T04:50:08;95416.53;;;3.28;56.20
21182;BME280;10749;46.296;7.524;2024-01-11T04:52:34;95407.97;;;3.26;56.26
21182;BME280;10749;46.296;7.524;2024-01-11T04:54:59;95417.97;;;3.21;56.23
21182;BME280;10749;46.296;7.524;2024-01-11T04:57:24;95416.56;;;3.17;56.16
21182;BME280;10749;46.296;7.524;2024-01-11T04:59:50;95418.31;;;3.16;56.39
21182;BME280;10749;46.296;7.524;2024-01-11T05:02:16;95423.09;;;3.22;56.31
21182;BME280;10749;46.296;7.524;2024-01-11T05:04:41;95417.25;;;3.30;56.42
21182;BME280;10749;46.296;7.524;2024-01-11T05:07:06;95422.44;;;3.41;56.46
21182;BME280;10749;46.296;7.524;2024-01-11T05:09:31;95411.25;;;3.50;56.43
21182;BME280;10749;46.296;7.524;2024-01-11T05:11:57;95410.75;;;3.56;56.50
21182;BME280;10749;46.296;7.524;2024-01-11T05:14:22;95402.31;;;3.64;56.32
21182;BME280;10749;46.296;7.524;2024-01-11T05:16:47;95405.59;;;3.66;56.35
21182;BME280;10749;46.296;7.524;2024-01-11T05:19:13;95410.09;;;3.32;56.04
21182;BME280;10749;46.296;7.524;2024-01-11T05:21:38;95410.34;;;3.29;56.01
21182;BME280;10749;46.296;7.524;2024-01-11T05:24:03;95397.50;;;3.26;56.26
21182;BME280;10749;46.296;7.524;2024-01-11T05:26:29;95416.53;;;3.28;56.25
21182;BME280;10749;46.296;7.524;2024-01-11T05:28:54;95407.25;;;3.24;56.40
21182;BME280;10749;46.296;7.524;2024-01-11T05:31:19;95420.13;;;3.27;56.49
21182;BME280;10749;46.296;7.524;2024-01-11T05:33:45;95415.09;;;3.24;56.41
21182;BME280;10749;46.296;7.524;2024-01-11T05:36:11;95413.81;;;3.18;56.40
21182;BME280;10749;46.296;7.524;2024-01-11T05:38:38;95413.00;;;3.18;56.44
21182;BME280;10749;46.296;7.524;2024-01-11T05:41:03;95412.00;;;3.19;56.46
21182;BME280;10749;46.296;7.524;2024-01-11T05:43:29;95411.22;;;3.18;56.28
21182;BME280;10749;46.296;7.524;2024-01-11T05:45:54;95420.09;;;3.16;56.28
21182;BME280;10749;46.296;7.524;2024-01-11T05:48:19;95415.03;;;3.14;56.12
21182;BME280;10749;46.296;7.524;2024-01-11T05:50:45;95412.97;;;3.07;56.37
21182;BME280;10749;46.296;7.524;2024-01-11T05:53:14;95419.41;;;3.03;56.14
21182;BME280;10749;46.296;7.524;2024-01-11T05:55:39;95412.97;;;3.07;56.31
21182;BME280;10749;46.296;7.524;2024-01-11T05:58:05;95416.56;;;3.06;56.25
21182;BME280;10749;46.296;7.524;2024-01-11T06:00:30;95416.56;;;3.06;56.38
21182;BME280;10749;46.296;7.524;2024-01-11T06:02:56;95418.34;;;3.05;56.48
21182;BME280;10749;46.296;7.524;2024-01-11T06:05:21;95423.84;;;3.02;56.26
21182;BME280;10749;46.296;7.524;2024-01-11T06:07:46;95415.16;;;3.02;56.27
21182;BME280;10749;46.296;7.524;2024-01-11T06:10:13;95419.66;;;3.00;56.42
21182;BME280;10749;46.296;7.524;2024-01-11T06:12:38;95426.19;;;3.05;56.41
21182;BME280;10749;46.296;7.524;2024-01-11T06:15:03;95419.63;;;3.11;56.38
21182;BME280;10749;46.296;7.524;2024-01-11T06:17:29;95419.28;;;3.15;56.45
21182;BME280;10749;46.296;7.524;2024-01-11T06:19:54;95423.91;;;3.12;56.35
21182;BME280;10749;46.296;7.524;2024-01-11T06:22:20;95426.19;;;2.94;56.25
21182;BME280;10749;46.296;7.524;2024-01-11T06:24:45;95425.00;;;2.87;56.31
21182;BME280;10749;46.296;7.524;2024-01-11T06:27:11;95426.31;;;2.93;56.39
21182;BME280;10749;46.296;7.524;2024-01-11T06:29:36;95426.06;;;2.96;56.49
21182;BME280;10749;46.296;7.524;2024-01-11T06:32:01;95423.56;;;2.94;56.57
21182;BME280;10749;46.296;7.524;2024-01-11T06:34:27;95425.59;;;3.02;56.52
21182;BME280;10749;46.296;7.524;2024-01-11T06:36:54;95419.88;;;3.08;56.67
21182;BME280;10749;46.296;7.524;2024-01-11T06:39:19;95430.34;;;3.08;56.72
21182;BME280;10749;46.296;7.524;2024-01-11T06:41:44;95421.81;;;3.06;56.61
21182;BME280;10749;46.296;7.524;2024-01-11T06:44:10;95420.72;;;3.08;56.51
21182;BME280;10749;46.296;7.524;2024-01-11T06:46:35;95420.59;;;3.10;56.71
21182;BME280;10749;46.296;7.524;2024-01-11T06:49:01;95433.44;;;3.13;56.59
21182;BME280;10749;46.296;7.524;2024-01-11T06:51:27;95431.50;;;3.15;56.59
21182;BME280;10749;46.296;7.524;2024-01-11T06:53:52;95436.75;;;3.15;56.73
21182;BME280;10749;46.296;7.524;2024-01-11T06:56:19;95434.84;;;3.17;56.56
21182;BME280;10749;46.296;7.524;2024-01-11T06:58:46;95434.59;;;3.20;56.76
21182;BME280;10749;46.296;7.524;2024-01-11T07:01:11;95435.69;;;3.17;56.68
21182;BME280;10749;46.296;7.524;2024-01-11T07:03:37;95434.13;;;3.15;56.65
21182;BME280;10749;46.296;7.524;2024-01-11T07:06:03;95429.16;;;3.12;56.58
21182;BME280;10749;46.296;7.524;2024-01-11T07:08:29;95435.81;;;3.05;56.53
21182;BME280;10749;46.296;7.524;2024-01-11T07:10:54;95436.66;;;3.05;56.71
21182;BME280;10749;46.296;7.524;2024-01-11T07:13:19;95439.13;;;3.07;56.79
21182;BME280;10749;46.296;7.524;2024-01-11T07:15:45;95436.41;;;3.08;56.63
21182;BME280;10749;46.296;7.524;2024-01-11T07:18:10;95444.16;;;3.10;56.76
21182;BME280;10749;46.296;7.524;2024-01-11T07:20:35;95440.56;;;3.11;56.65
21182;BME280;10749;46.296;7.524;2024-01-11T07:23:01;95442.72;;;3.06;56.48
21182;BME280;10749;46.296;7.524;2024-01-11T07:25:26;95445.56;;;3.03;56.55
21182;BME280;10749;46.296;7.524;2024-01-11T07:27:52;95448.41;;;3.00;56.35
21182;BME280;10749;46.296;7.524;2024-01-11T07:30:17;95441.50;;;2.99;56.54
21182;BME280;10749;46.296;7.524;2024-01-11T07:32:45;95445.69;;;3.01;56.63
21182;BME280;10749;46.296;7.524;2024-01-11T07:35:11;95442.25;;;3.01;56.57
21182;BME280;10749;46.296;7.524;2024-01-11T07:37:37;95445.09;;;2.98;56.79
21182;BME280;10749;46.296;7.524;2024-01-11T07:40:03;95452.94;;;2.98;56.72
21182;BME280;10749;46.296;7.524;2024-01-11T07:42:29;95447.72;;;2.98;56.86
21182;BME280;10749;46.296;7.524;2024-01-11T07:44:54;95458.03;;;2.99;56.73
21182;BME280;10749;46.296;7.524;2024-01-11T07:47:19;95457.22;;;2.99;56.56
21182;BME280;10749;46.296;7.524;2024-01-11T07:49:45;95455.56;;;2.98;56.73
21182;BME280;10749;46.296;7.524;2024-01-11T07:52:10;95457.94;;;2.90;56.75
21182;BME280;10749;46.296;7.524;2024-01-11T07:54:35;95455.19;;;2.91;56.82
21182;BME280;10749;46.296;7.524;2024-01-11T07:57:00;95469.81;;;2.94;56.66
21182;BME280;10749;46.296;7.524;2024-01-11T07:59:31;95468.50;;;2.99;56.73
21182;BME280;10749;46.296;7.524;2024-01-11T08:01:57;95466.38;;;3.04;56.76
21182;BME280;10749;46.296;7.524;2024-01-11T08:04:22;95465.28;;;3.07;56.77
21182;BME280;10749;46.296;7.524;2024-01-11T08:06:48;95459.00;;;3.09;56.63
21182;BME280;10749;46.296;7.524;2024-01-11T08:09:13;95461.25;;;3.14;56.61
21182;BME280;10749;46.296;7.524;2024-01-11T08:11:38;95465.91;;;3.10;56.70
21182;BME280;10749;46.296;7.524;2024-01-11T08:14:04;95476.97;;;3.14;56.84
21182;BME280;10749;46.296;7.524;2024-01-11T08:16:30;95470.06;;;3.13;56.83
21182;BME280;10749;46.296;7.524;2024-01-11T08:18:55;95471.94;;;3.11;56.75
21182;BME280;10749;46.296;7.524;2024-01-11T08:21:21;95475.28;;;3.13;56.73
21182;BME280;10749;46.296;7.524;2024-01-11T08:23:46;95471.94;;;3.11;56.65
21182;BME280;10749;46.296;7.524;2024-01-11T08:26:14;95476.59;;;3.07;56.65
21182;BME280;10749;46.296;7.524;2024-01-11T08:28:40;95477.41;;;3.08;56.49
21182;BME280;10749;46.296;7.524;2024-01-11T08:31:05;95471.13;;;3.10;56.66
21182;BME280;10749;46.296;7.524;2024-01-11T08:33:31;95474.44;;;3.12;56.79
21182;BME280;10749;46.296;7.524;2024-01-11T08:35:57;95461.72;;;3.19;56.77
21182;BME280;10749;46.296;7.524;2024-01-11T08:38:22;95468.38;;;3.23;56.82
21182;BME280;10749;46.296;7.524;2024-01-11T08:40:49;95465.53;;;3.26;56.58
21182;BME280;10749;46.296;7.524;2024-01-11T08:43:14;95462.41;;;3.32;56.85
21182;BME280;10749;46.296;7.524;2024-01-11T08:45:40;95465.16;;;3.42;56.89
21182;BME280;10749;46.296;7.524;2024-01-11T08:48:05;95466.44;;;3.58;56.87
21182;BME280;10749;46.296;7.524;2024-01-11T08:50:30;95463.31;;;3.76;56.96
21182;BME280;10749;46.296;7.524;2024-01-11T08:52:57;95467.19;;;3.81;56.68
21182;BME280;10749;46.296;7.524;2024-01-11T08:55:22;95465.63;;;3.90;56.70
21182;BME280;10749;46.296;7.524;2024-01-11T08:57:48;95456.06;;;4.00;56.79
21182;BME280;10749;46.296;7.524;2024-01-11T09:00:13;95455.78;;;4.14;56.85
21182;BME280;10749;46.296;7.524;2024-01-11T09:02:43;95459.03;;;4.27;56.95
21182;BME280;10749;46.296;7.524;2024-01-11T09:05:08;95455.41;;;4.39;56.84
21182;BME280;10749;46.296;7.524;2024-01-11T09:07:33;95452.03;;;4.48;56.85
21182;BME280;10749;46.296;7.524;2024-01-11T09:09:59;95459.84;;;4.59;56.89
21182;BME280;10749;46.296;7.524;2024-01-11T09:12:24;95458.44;;;4.55;56.88
21182;BME280;10749;46.296;7.524;2024-01-11T09:14:49;95451.31;;;4.67;56.87
21182;BME280;10749;46.296;7.524;2024-01-11T09:17:15;95449.19;;;4.82;56.54
21182;BME280;10749;46.296;7.524;2024-01-11T09:19:40;95457.69;;;4.95;56.87
21182;BME280;10749;46.296;7.524;2024-01-11T09:22:06;95459.25;;;5.07;56.97
21182;BME280;10749;46.296;7.524;2024-01-11T09:24:35;95460.97;;;5.18;56.90
21182;BME280;10749;46.296;7.524;2024-01-11T09:27:00;95468.75;;;5.29;56.70
21182;BME280;10749;46.296;7.524;2024-01-11T09:29:26;95463.78;;;5.35;56.67
21182;BME280;10749;46.296;7.524;2024-01-11T09:31:53;95464.34;;;5.29;56.75
21182;BME280;10749;46.296;7.524;2024-01-11T09:34:18;95463.78;;;5.35;56.75
21182;BME280;10749;46.296;7.524;2024-01-11T09:36:44;95464.66;;;5.45;56.69
21182;BME280;10749;46.296;7.524;2024-01-11T09:39:10;95476.84;;;5.56;56.74
21182;BME280;10749;46.296;7.524;2024-01-11T09:41:42;95480.75;;;5.62;56.50
21182;BME280;10749;46.296;7.524;2024-01-11T09:44:12;95482.13;;;5.66;56.47
21182;BME280;10749;46.296;7.524;2024-01-11T09:46:37;95477.28;;;5.61;56.41
21182;BME280;10749;46.296;7.524;2024-01-11T09:49:03;95480.53;;;5.44;56.51
21182;BME280;10749;46.296;7.524;2024-01-11T09:51:29;95474.38;;;5.54;56.42
21182;BME280;10749;46.296;7.524;2024-01-11T09:53:55;95480.75;;;5.62;56.36
21182;BME280;10749;46.296;7.524;2024-01-11T09:56:24;95482.00;;;5.67;56.41
21182;BME280;10749;46.296;7.524;2024-01-11T09:58:50;95481.34;;;5.75;56.56
21182;BME280;10749;46.296;7.524;2024-01-11T10:01:16;95476.59;;;5.69;56.43
21182;BME280;10749;46.296;7.524;2024-01-11T10:03:43;95475.22;;;5.65;56.43
21182;BME280;10749;46.296;7.524;2024-01-11T10:06:08;95470.25;;;5.81;56.47
21182;BME280;10749;46.296;7.524;2024-01-11T10:08:35;95470.34;;;6.00;56.45
21182;BME280;10749;46.296;7.524;2024-01-11T10:11:00;95470.63;;;6.16;56.44
21182;BME280;10749;46.296;7.524;2024-01-11T10:13:28;95462.88;;;6.24;56.31
21182;BME280;10749;46.296;7.524;2024-01-11T10:16:08;95460.69;;;6.29;56.27
21182;BME280;10749;46.296;7.524;2024-01-11T10:18:34;95455.97;;;6.33;56.47
21182;BME280;10749;46.296;7.524;2024-01-11T10:21:00;95458.44;;;6.34;56.08
21182;BME280;10749;46.296;7.524;2024-01-11T10:23:26;95454.31;;;6.41;56.26
21182;BME280;10749;46.296;7.524;2024-01-11T10:25:56;95452.63;;;6.40;56.11
21182;BME280;10749;46.296;7.524;2024-01-11T10:28:23;95449.44;;;6.46;56.14
21182;BME280;10749;46.296;7.524;2024-01-11T10:30:50;95447.09;;;6.43;56.20
21182;BME280;10749;46.296;7.524;2024-01-11T10:33:19;95451.25;;;6.36;55.99
21182;BME280;10749;46.296;7.524;2024-01-11T10:35:45;95446.53;;;6.30;55.74
21182;BME280;10749;46.296;7.524;2024-01-11T10:38:11;95444.88;;;6.48;56.10
21182;BME280;10749;46.296;7.524;2024-01-11T10:40:36;95447.22;;;6.71;55.98
21182;BME280;10749;46.296;7.524;2024-01-11T10:43:02;95441.91;;;6.90;56.08
21182;BME280;10749;46.296;7.524;2024-01-11T10:45:31;95445.59;;;6.97;56.00
21182;BME280;10749;46.296;7.524;2024-01-11T10:48:06;95438.94;;;7.12;55.90
21182;BME280;10749;46.296;7.524;2024-01-11T10:50:36;95441.41;;;7.14;56.06
21182;BME280;10749;46.296;7.524;2024-01-11T10:53:38;95439.28;;;7.27;56.00
21182;BME280;10749;46.296;7.524;2024-01-11T10:56:07;95434.94;;;7.35;55.92
21182;BME280;10749;46.296;7.524;2024-01-11T10:58:34;95432.09;;;7.47;55.98
21182;BME280;10749;46.296;7.524;2024-01-11T11:01:01;95432.50;;;7.52;56.04
21182;BME280;10749;46.296;7.524;2024-01-11T11:03:27;95427.22;;;7.52;55.76
21182;BME280;10749;46.296;7.524;2024-01-11T11:05:54;95420.00;;;7.54;55.85
21182;BME280;10749;46.296;7.524;2024-01-11T11:08:22;95417.09;;;7.57;55.86
21182;BME280;10749;46.296;7.524;2024-01-11T11:10:48;95421.47;;;7.66;55.81
21182;BME280;10749;46.296;7.524;2024-01-11T11:13:15;95408.94;;;7.77;55.77
21182;BME280;10749;46.296;7.524;2024-01-11T11:15:43;95404.56;;;7.86;55.74
21182;BME280;10749;46.296;7.524;2024-01-11T11:18:12;95400.56;;;8.00;55.86
21182;BME280;10749;46.296;7.524;2024-01-11T11:20:39;95399.22;;;8.13;55.88
21182;BME280;10749;46.296;7.524;2024-01-11T11:23:08;95392.72;;;8.08;55.44
21182;BME280;10749;46.296;7.524;2024-01-11T11:25:42;95393.03;;;8.22;55.76
21182;BME280;10749;46.296;7.524;2024-01-11T11:28:07;95391.84;;;8.34;55.77
21182;BME280;10749;46.296;7.524;2024-01-11T11:30:36;95384.75;;;8.17;55.57
21182;BME280;10749;46.296;7.524;2024-01-11T11:33:19;95383.97;;;8.25;55.66
21182;BME280;10749;46.296;7.524;2024-01-11T11:35:46;95375.06;;;8.36;55.36
21182;BME280;10749;46.296;7.524;2024-01-11T11:38:20;95377.38;;;8.39;55.32
21182;BME280;10749;46.296;7.524;2024-01-11T11:40:47;95373.47;;;8.68;55.39
21182;BME280;10749;46.296;7.524;2024-01-11T11:43:16;95370.88;;;9.02;55.63
21182;BME280;10749;46.296;7.524;2024-01-11T11:45:42;95366.69;;;9.25;55.58
21182;BME280;10749;46.296;7.524;2024-01-11T11:51:12;95367.19;;;9.79;55.60
21182;BME280;10749;46.296;7.524;2024-01-11T11:53:39;95360.94;;;9.96;55.60
21182;BME280;10749;46.296;7.524;2024-01-11T11:56:05;95366.25;;;10.12;55.76
21182;BME280;10749;46.296;7.524;2024-01-11T11:58:31;95370.91;;;10.27;55.51
21182;BME280;10749;46.296;7.524;2024-01-11T12:00:58;95365.94;;;10.32;55.51
21182;BME280;10749;46.296;7.524;2024-01-11T12:03:37;95360.66;;;10.40;55.26
21182;BME280;10749;46.296;7.524;2024-01-11T12:06:05;95365.28;;;10.46;55.02
21182;BME280;10749;46.296;7.524;2024-01-11T12:08:32;95356.84;;;10.58;55.11
21182;BME280;10749;46.296;7.524;2024-01-11T12:10:57;95359.97;;;10.70;55.11
21182;BME280;10749;46.296;7.524;2024-01-11T12:13:24;95361.75;;;10.86;55.03
21182;BME280;10749;46.296;7.524;2024-01-11T12:15:49;95361.47;;;10.81;54.46
21182;BME280;10749;46.296;7.524;2024-01-11T12:18:15;95360.78;;;10.71;54.04
21182;BME280;10749;46.296;7.524;2024-01-11T12:20:40;95355.66;;;10.61;53.89
21182;BME280;10749;46.296;7.524;2024-01-11T12:23:05;95358.66;;;10.66;54.01
21182;BME280;10749;46.296;7.524;2024-01-11T12:25:31;95348.97;;;10.97;54.21
21182;BME280;10749;46.296;7.524;2024-01-11T12:27:57;95355.25;;;11.13;53.89
21182;BME280;10749;46.296;7.524;2024-01-11T12:30:23;95354.88;;;11.24;54.10
21182;BME280;10749;46.296;7.524;2024-01-11T12:32:49;95350.56;;;11.23;53.59
21182;BME280;10749;46.296;7.524;2024-01-11T12:35:14;95353.84;;;11.33;53.55
21182;BME280;10749;46.296;7.524;2024-01-11T12:37:40;95343.47;;;11.54;53.96
21182;BME280;10749;46.296;7.524;2024-01-11T12:40:06;95343.06;;;11.73;53.91
21182;BME280;10749;46.296;7.524;2024-01-11T12:42:35;95329.47;;;11.68;53.41
21182;BME280;10749;46.296;7.524;2024-01-11T12:45:00;95329.16;;;11.71;53.21
21182;BME280;10749;46.296;7.524;2024-01-11T12:47:26;95332.03;;;11.53;52.64
21182;BME280;10749;46.296;7.524;2024-01-11T12:49:51;95331.03;;;11.24;52.13
21182;BME280;10749;46.296;7.524;2024-01-11T12:52:18;95326.31;;;11.42;52.68
21182;BME280;10749;46.296;7.524;2024-01-11T12:54:44;95328.72;;;11.51;52.61
21182;BME280;10749;46.296;7.524;2024-01-11T12:57:20;95319.78;;;11.52;52.18
21182;BME280;10749;46.296;7.524;2024-01-11T12:59:46;95328.84;;;11.66;52.61
21182;BME280;10749;46.296;7.524;2024-01-11T13:02:11;95329.16;;;11.71;52.01
21182;BME280;10749;46.296;7.524;2024-01-11T13:04:39;95328.59;;;11.45;51.86
21182;BME280;10749;46.296;7.524;2024-01-11T13:07:05;95324.69;;;11.33;51.99